Flight Track Log - Related Links

Times and Time Zones

All times are in EDT time to prevent confusion due to time zone crossing. See the N700QA flight status page for this flight to view local times or setup timezone preferences in your user account.

Time Position Orientation Groundspeed Altitude Reporting Facility
EDT Latitude Longitude Course Direction KTS MPH feet Rate Location/Type
Wed 01:47:45 PM 32.8333 -96.8333 121° Southeast 174 200 1,300  Level Dallas / Fort Worth TRACON
Wed 01:48:15 PM 32.8167 -96.8000 121° Southeast 174 200 2,400 2,267 Climbing Dallas / Fort Worth TRACON
Wed 01:49:15 PM 32.7833 -96.7667 140° Southeast 218 251 4,700 2,500 Climbing Dallas / Fort Worth TRACON
Wed 01:50:15 PM 32.7500 -96.7000 121° Southeast 224 258 7,400 2,600 Climbing Dallas / Fort Worth TRACON
Wed 01:51:15 PM 32.8167 -96.6833 12° North 274 315 9,900 2,400 Climbing Dallas / Fort Worth TRACON
Wed 01:52:15 PM 32.8833 -96.7500 320° Northwest 282 325 12,200 2,132 Climbing Dallas / Fort Worth TRACON
Wed 01:53:16 PM 32.9500 -96.8000 328° Northwest 299 344 14,200 1,800 Climbing Dallas / Fort Worth TRACON
Wed 01:55:45 PM 33.1081 -96.9547 321° Northwest 320 368 18,500 1,780 Climbing Fort Worth Center
Wed 01:56:45 PM 33.1897 -97.0186 327° Northwest 325 374 20,400 1,500 Climbing Fort Worth Center
Wed 01:57:45 PM 33.2650 -97.0681 331° Northwest 330 380 21,500 1,300 Climbing Fort Worth Center
Wed 01:58:45 PM 33.3569 -97.1275 332° Northwest 342 394 23,000 1,350 Climbing Fort Worth Center
Wed 01:59:45 PM 33.4364 -97.1769 333° Northwest 347 399 24,200 1,100 Climbing Fort Worth Center
Wed 02:00:45 PM 33.5200 -97.2317 331° Northwest 347 399 25,200 900 Climbing Fort Worth Center
Wed 02:01:45 PM 33.6097 -97.2889 332° Northwest 353 406 26,000 700 Climbing Fort Worth Center
Wed 02:02:45 PM 33.7017 -97.3486 332° Northwest 358 412 26,600 800 Climbing Fort Worth Center
Wed 02:03:45 PM 33.7914 -97.4086 331° Northwest 363 418 27,600 1,000 Climbing Fort Worth Center
Wed 02:04:45 PM 33.8792 -97.4661 331° Northwest 363 418 28,600 1,050 Climbing Fort Worth Center
Wed 02:05:45 PM 33.9689 -97.5286 330° Northwest 363 418 29,700 700 Climbing Fort Worth Center
Wed 02:06:45 PM 34.0583 -97.5839 333° Northwest 363 418 30,000 150 Climbing Fort Worth Center
Wed 02:07:45 PM 34.1586 -97.6594 328° Northwest 370 426 30,000 50 Level Fort Worth Center
Wed 02:08:45 PM 34.2564 -97.7250 331° Northwest 382 440 30,100 500 Climbing Fort Worth Center
Wed 02:09:45 PM 34.3522 -97.7883 331° Northwest 393 452 31,000 900 Climbing Fort Worth Center
Wed 02:10:45 PM 34.4458 -97.8492 332° Northwest 393 452 31,900 850 Climbing Fort Worth Center
Wed 02:11:45 PM 34.5353 -97.9100 331° Northwest 380 437 32,700 750 Climbing Fort Worth Center
Wed 02:12:45 PM 34.6122 -97.9636 330° Northwest 366 421 33,400 800 Climbing Fort Worth Center
Wed 02:13:45 PM 34.6956 -98.0197 331° Northwest 354 407 34,300 800 Climbing Fort Worth Center
Wed 02:14:45 PM 34.7786 -98.0758 331° Northwest 349 402 35,000 650 Climbing Fort Worth Center
Wed 02:15:45 PM 34.8556 -98.1422 325° Northwest 349 402 35,600 500 Climbing Fort Worth Center
Wed 02:16:45 PM 34.9156 -98.2339 309° West 344 396 36,000 200 Climbing Fort Worth Center
Wed 02:17:45 PM 34.9794 -98.3283 310° West 347 399 36,000 50 Level Fort Worth Center
Wed 02:18:45 PM 35.0433 -98.4253 309° West 361 415 36,100 50 Climbing Fort Worth Center
Wed 02:19:45 PM 35.1175 -98.5303 311° West 374 430 36,100  Level Fort Worth Center
Wed 02:20:45 PM 35.1814 -98.6303 308° West 374 430 36,100  Level Fort Worth Center
Wed 02:21:45 PM 35.2492 -98.7328 309° West 374 430 36,100  Level Fort Worth Center
Wed 02:22:45 PM 35.3125 -98.8331 308° West 374 430 36,100  Level Fort Worth Center
Wed 02:23:45 PM 35.3761 -98.9311 309° West 374 430 36,100  Level Fort Worth Center
Wed 02:25:35 PM 35.4942 -99.1144 308° West 373 429 36,100  Level Kansas City Center
Wed 02:26:37 PM 35.5578 -99.2153 308° West 372 428 36,100  Level Kansas City Center
Wed 02:27:39 PM 35.6222 -99.3167 308° West 372 428 36,100  Level Kansas City Center
Wed 02:28:41 PM 35.6875 -99.4183 308° West 373 429 36,100  Level Kansas City Center
Wed 02:29:43 PM 35.7528 -99.5186 309° West 373 429 36,100  Level Kansas City Center
Wed 02:30:44 PM 35.8356 -99.6006 321° Northwest 379 436 36,100  Level Kansas City Center
Wed 02:31:46 PM 35.9147 -99.6861 319° Northwest 375 432 36,100  Level Kansas City Center
Wed 02:32:48 PM 35.9911 -99.7753 317° Northwest 375 432 36,100  Level Kansas City Center
Wed 02:33:50 PM 36.0700 -99.8614 319° Northwest 376 433 36,100  Level Kansas City Center
Wed 02:34:52 PM 36.1483 -99.9481 318° Northwest 375 432 36,100  Level Kansas City Center
Wed 02:35:54 PM 36.2431 -100.0536 318° Northwest 378 435 36,100  Level Kansas City Center
Wed 02:36:56 PM 36.3222 -100.1411 318° Northwest 379 436 36,100  Level Kansas City Center
Wed 02:37:58 PM 36.3994 -100.2308 317° Northwest 379 436 36,100  Level Kansas City Center
Wed 02:38:59 PM 36.4778 -100.3200 318° Northwest 380 437 36,100  Level Kansas City Center
Wed 02:40:01 PM 36.5586 -100.4106 318° Northwest 381 438 36,100 97 Level Kansas City Center
Wed 02:41:03 PM 36.6464 -100.5114 317° Northwest 384 442 36,300 387 Climbing Kansas City Center
Wed 02:42:05 PM 36.7192 -100.5961 317° Northwest 378 435 36,900 629 Climbing Kansas City Center
Wed 02:43:07 PM 36.8044 -100.6919 318° Northwest 371 427 37,600 532 Climbing Kansas City Center
Wed 02:44:09 PM 36.8744 -100.7750 317° Northwest 365 420 38,000 194 Climbing Kansas City Center
Wed 02:45:11 PM 36.9456 -100.8581 317° Northwest 365 420 38,000  Level Kansas City Center
Wed 02:46:13 PM 37.0200 -100.9650 311° West 366 421 38,000  Level Kansas City Center
Wed 02:47:14 PM 37.0814 -101.0639 308° West 372 428 38,000  Level Kansas City Center
Wed 02:48:16 PM 37.1625 -101.1689 314° West 374 430 38,000  Level Kansas City Center
Wed 02:49:18 PM 37.2372 -101.2561 317° Northwest 379 436 38,000  Level Kansas City Center
Wed 02:50:20 PM 37.3144 -101.3689 311° West 380 437 38,000  Level Kansas City Center
Wed 02:51:22 PM 37.3797 -101.4661 310° West 380 437 38,000  Level Kansas City Center
Wed 02:52:24 PM 37.4453 -101.5617 311° West 377 434 38,000 -97 Level Kansas City Center
Wed 02:53:26 PM 37.5203 -101.6722 311° West 373 429 37,800 -387 Descending Kansas City Center
Wed 02:54:28 PM 37.5853 -101.7717 310° West 379 436 37,200 -683 Descending Kansas City Center
Wed 02:55:29 PM 37.6650 -101.8872 311° West 388 447 36,400 -585 Descending Kansas City Center
Wed 02:56:31 PM 37.7336 -101.9897 310° West 394 453 36,000 -194 Descending Kansas City Center
Wed 02:57:33 PM 37.8114 -102.1064 310° West 391 450 36,000  Level Kansas City Center
Wed 02:58:15 PM 37.8467 -102.1553 312° West 385 443 36,000 -58 Level Denver Center
Wed 02:59:17 PM 37.9211 -102.2731 309° West 384 442 35,900  Descending Denver Center
Wed 03:00:19 PM 37.9956 -102.3858 310° West 376 433 36,000  Climbing Denver Center
Wed 03:01:21 PM 38.0600 -102.4833 310° West 375 432 35,900 -194 Descending Denver Center
Wed 03:02:23 PM 38.1203 -102.6061 302° West 369 425 35,600 -581 Descending Denver Center
Wed 03:03:25 PM 38.1619 -102.7231 294° West 377 434 34,700 -919 Descending Denver Center
Wed 03:04:27 PM 38.2231 -102.8592 300° West 394 453 33,700 -1,008 Descending Denver Center
Wed 03:05:30 PM 38.2706 -102.9747 298° West 388 447 32,600 -1,440 Descending Denver Center
Wed 03:06:32 PM 38.3258 -103.1103 297° West 387 445 30,700 -1,887 Descending Denver Center
Wed 03:07:34 PM 38.3733 -103.2275 297° West 389 448 28,700 -2,177 Descending Denver Center
Wed 03:08:36 PM 38.4314 -103.3650 298° West 392 451 26,200 -2,146 Descending Denver Center
Wed 03:09:37 PM 38.4733 -103.4697 297° West 398 458 24,300 -2,098 Descending Denver Center
Wed 03:10:39 PM 38.5297 -103.6067 298° West 391 450 21,900 -2,323 Descending Denver Center
Wed 03:11:41 PM 38.5839 -103.7400 297° West 377 434 19,500 -2,081 Descending Denver Center
Wed 03:12:43 PM 38.6278 -103.8486 297° West 362 417 17,600 -1,645 Descending Denver Center
Wed 03:13:45 PM 38.6750 -103.9697 297° West 349 402 16,100 -726 Descending Denver Center
Wed 03:14:47 PM 38.7161 -104.0686 298° West 336 387 16,100 -64 Level Denver Center
Wed 03:15:19 PM 38.7447 -104.1367 298° West 347 399 16,000 -81 Descending Denver Center
Wed 03:16:01 PM 38.7658 -104.1925 296° West 345 397 16,000 -686 Level Denver Center
Wed 03:17:04 PM 38.8283 -104.3169 303° West 330 380 14,800 -1,008 Descending Denver Center
Wed 03:18:06 PM 38.9017 -104.3689 331° Northwest 316 364 13,900 -823 Descending Denver Center
Wed 03:19:08 PM 38.9739 -104.4153 333° Northwest 306 352 13,100 -871 Descending Denver Center
Wed 03:20:10 PM 39.0533 -104.4747 330° Northwest 283 326 12,100 -677 Descending Denver Center
Wed 03:21:12 PM 39.1183 -104.5236 330° Northwest 264 304 11,700 -774 Descending Denver Center
Wed 03:22:14 PM 39.1811 -104.5861 322° Northwest 281 323 10,500 -1,161 Descending Denver Center
Wed 03:23:16 PM 39.2531 -104.6542 324° Northwest 298 343 9,300 -677 Descending Denver Center
Wed 03:24:18 PM 39.3142 -104.7117 324° Northwest 275 316 9,100 -145 Descending Denver Center
Wed 03:25:20 PM 39.3703 -104.7656 323° Northwest 258 297 9,000 -339 Descending Denver Center
Wed 03:26:22 PM 39.4269 -104.8217 323° Northwest 242 278 8,400 -532 Descending Denver Center
Wed 03:27:24 PM 39.4808 -104.8469 340° North 214 246 7,900 -919 Descending Denver Center
Wed 03:28:26 PM 39.5344 -104.8483 359° North 178 205 6,500 -1,024 Descending Denver Center
Wed 03:29:27 PM 39.5667 -104.8522 355° North 149 171 5,800 -689 Descending Denver Center
Wed 03:31:00 PM 39.5701 -104.8493 57° Northeast  Level Estimated
Wed 03:38:00 PM 39.5701 -104.8493 237° Southwest  Level Estimated
Wed 03:39:00 PM 39.5701 -104.8493 237° Southwest  Level Estimated

Login

Don't have an account? Register now (free) for customized features, flight alerts, and more!